sensor_id;sensor_type;location;lat;lon;timestamp;P1;durP1;ratioP1;P2;durP2;ratioP2
42110;SDS011;27766;52.174;5.456;2022-08-19T00:01:56;5.55;;;4.97;;
42110;SDS011;27766;52.174;5.456;2022-08-19T00:04:27;5.78;;;5.13;;
42110;SDS011;27766;52.174;5.456;2022-08-19T00:07:00;6.38;;;4.63;;
42110;SDS011;27766;52.174;5.456;2022-08-19T00:09:27;9.77;;;4.97;;
42110;SDS011;27766;52.174;5.456;2022-08-19T00:11:57;9.88;;;5.40;;
42110;SDS011;27766;52.174;5.456;2022-08-19T00:14:26;5.38;;;4.85;;
42110;SDS011;27766;52.174;5.456;2022-08-19T00:16:56;7.22;;;5.15;;
42110;SDS011;27766;52.174;5.456;2022-08-19T00:19:24;8.57;;;5.28;;
42110;SDS011;27766;52.174;5.456;2022-08-19T00:21:52;7.32;;;5.03;;
42110;SDS011;27766;52.174;5.456;2022-08-19T00:24:23;7.15;;;5.50;;
42110;SDS011;27766;52.174;5.456;2022-08-19T00:26:50;6.72;;;4.78;;
42110;SDS011;27766;52.174;5.456;2022-08-19T00:29:28;8.93;;;5.25;;
42110;SDS011;27766;52.174;5.456;2022-08-19T00:31:56;5.40;;;4.90;;
42110;SDS011;27766;52.174;5.456;2022-08-19T00:34:26;7.03;;;5.35;;
42110;SDS011;27766;52.174;5.456;2022-08-19T00:36:56;5.40;;;4.88;;
42110;SDS011;27766;52.174;5.456;2022-08-19T00:39:26;5.70;;;5.15;;
42110;SDS011;27766;52.174;5.456;2022-08-19T00:41:53;7.20;;;5.97;;
42110;SDS011;27766;52.174;5.456;2022-08-19T00:44:22;7.45;;;5.60;;
42110;SDS011;27766;52.174;5.456;2022-08-19T00:46:53;5.18;;;4.60;;
42110;SDS011;27766;52.174;5.456;2022-08-19T00:49:34;6.28;;;4.60;;
42110;SDS011;27766;52.174;5.456;2022-08-19T00:52:07;5.18;;;4.50;;
42110;SDS011;27766;52.174;5.456;2022-08-19T00:54:39;5.75;;;4.95;;
42110;SDS011;27766;52.174;5.456;2022-08-19T00:57:08;4.55;;;4.15;;
42110;SDS011;27766;52.174;5.456;2022-08-19T00:59:39;7.20;;;4.72;;
42110;SDS011;27766;52.174;5.456;2022-08-19T01:02:28;5.93;;;5.07;;
42110;SDS011;27766;52.174;5.456;2022-08-19T01:04:58;6.85;;;4.45;;
42110;SDS011;27766;52.174;5.456;2022-08-19T01:07:28;4.85;;;4.38;;
42110;SDS011;27766;52.174;5.456;2022-08-19T01:10:04;5.65;;;4.68;;
42110;SDS011;27766;52.174;5.456;2022-08-19T01:12:33;7.38;;;4.90;;
42110;SDS011;27766;52.174;5.456;2022-08-19T01:15:02;5.70;;;4.55;;
42110;SDS011;27766;52.174;5.456;2022-08-19T01:17:30;5.07;;;4.57;;
42110;SDS011;27766;52.174;5.456;2022-08-19T01:20:00;6.43;;;5.80;;
42110;SDS011;27766;52.174;5.456;2022-08-19T01:22:31;8.85;;;6.55;;
42110;SDS011;27766;52.174;5.456;2022-08-19T01:25:06;8.98;;;7.22;;
42110;SDS011;27766;52.174;5.456;2022-08-19T01:27:41;8.35;;;6.75;;
42110;SDS011;27766;52.174;5.456;2022-08-19T01:30:12;7.63;;;6.93;;
42110;SDS011;27766;52.174;5.456;2022-08-19T01:32:44;8.63;;;7.63;;
42110;SDS011;27766;52.174;5.456;2022-08-19T01:35:11;11.52;;;8.57;;
42110;SDS011;27766;52.174;5.456;2022-08-19T01:40:16;9.93;;;8.13;;
42110;SDS011;27766;52.174;5.456;2022-08-19T01:42:44;9.60;;;8.57;;
42110;SDS011;27766;52.174;5.456;2022-08-19T01:45:11;11.52;;;9.32;;
42110;SDS011;27766;52.174;5.456;2022-08-19T01:47:38;11.73;;;9.43;;
42110;SDS011;27766;52.174;5.456;2022-08-19T01:50:06;9.63;;;8.73;;
42110;SDS011;27766;52.174;5.456;2022-08-19T01:52:35;12.93;;;9.25;;
42110;SDS011;27766;52.174;5.456;2022-08-19T01:55:04;11.43;;;9.13;;
42110;SDS011;27766;52.174;5.456;2022-08-19T01:57:32;11.77;;;9.73;;
42110;SDS011;27766;52.174;5.456;2022-08-19T02:00:00;10.85;;;9.75;;
42110;SDS011;27766;52.174;5.456;2022-08-19T02:02:29;11.07;;;9.50;;
42110;SDS011;27766;52.174;5.456;2022-08-19T02:04:57;9.90;;;8.90;;
42110;SDS011;27766;52.174;5.456;2022-08-19T02:07:25;16.40;;;11.10;;
42110;SDS011;27766;52.174;5.456;2022-08-19T02:09:52;11.80;;;8.90;;
42110;SDS011;27766;52.174;5.456;2022-08-19T02:12:22;11.20;;;9.10;;
42110;SDS011;27766;52.174;5.456;2022-08-19T02:14:51;9.65;;;8.60;;
42110;SDS011;27766;52.174;5.456;2022-08-19T02:17:19;10.10;;;9.05;;
42110;SDS011;27766;52.174;5.456;2022-08-19T02:19:48;11.25;;;9.77;;
42110;SDS011;27766;52.174;5.456;2022-08-19T02:22:15;11.18;;;9.93;;
42110;SDS011;27766;52.174;5.456;2022-08-19T02:24:43;11.88;;;10.52;;
42110;SDS011;27766;52.174;5.456;2022-08-19T02:27:13;11.20;;;10.02;;
42110;SDS011;27766;52.174;5.456;2022-08-19T02:29:40;14.80;;;10.43;;
42110;SDS011;27766;52.174;5.456;2022-08-19T02:32:07;11.40;;;10.20;;
42110;SDS011;27766;52.174;5.456;2022-08-19T02:34:34;14.27;;;12.50;;
42110;SDS011;27766;52.174;5.456;2022-08-19T02:37:02;12.68;;;11.32;;
42110;SDS011;27766;52.174;5.456;2022-08-19T02:39:29;12.75;;;11.43;;
42110;SDS011;27766;52.174;5.456;2022-08-19T02:41:57;15.75;;;11.35;;
42110;SDS011;27766;52.174;5.456;2022-08-19T02:44:26;13.65;;;11.55;;
42110;SDS011;27766;52.174;5.456;2022-08-19T02:46:57;11.85;;;10.48;;
42110;SDS011;27766;52.174;5.456;2022-08-19T02:49:26;15.55;;;11.50;;
42110;SDS011;27766;52.174;5.456;2022-08-19T02:51:53;13.23;;;11.82;;
42110;SDS011;27766;52.174;5.456;2022-08-19T02:54:21;15.35;;;11.02;;
42110;SDS011;27766;52.174;5.456;2022-08-19T02:56:49;13.77;;;10.65;;
42110;SDS011;27766;52.174;5.456;2022-08-19T02:59:16;13.00;;;11.70;;
42110;SDS011;27766;52.174;5.456;2022-08-19T03:01:48;14.70;;;11.35;;
42110;SDS011;27766;52.174;5.456;2022-08-19T03:04:16;13.25;;;11.60;;
42110;SDS011;27766;52.174;5.456;2022-08-19T03:06:45;11.98;;;10.68;;
42110;SDS011;27766;52.174;5.456;2022-08-19T03:09:14;13.85;;;10.95;;
42110;SDS011;27766;52.174;5.456;2022-08-19T03:11:42;23.15;;;11.75;;
42110;SDS011;27766;52.174;5.456;2022-08-19T03:14:09;13.80;;;11.93;;
42110;SDS011;27766;52.174;5.456;2022-08-19T03:16:42;23.02;;;12.77;;
42110;SDS011;27766;52.174;5.456;2022-08-19T03:19:15;15.25;;;12.40;;
42110;SDS011;27766;52.174;5.456;2022-08-19T03:21:44;16.48;;;12.68;;
42110;SDS011;27766;52.174;5.456;2022-08-19T03:24:13;19.42;;;13.48;;
42110;SDS011;27766;52.174;5.456;2022-08-19T03:26:41;15.25;;;12.82;;
42110;SDS011;27766;52.174;5.456;2022-08-19T03:29:13;14.63;;;12.90;;
42110;SDS011;27766;52.174;5.456;2022-08-19T03:31:55;16.17;;;13.75;;
42110;SDS011;27766;52.174;5.456;2022-08-19T03:34:24;19.33;;;12.73;;
42110;SDS011;27766;52.174;5.456;2022-08-19T03:36:54;18.50;;;13.60;;
42110;SDS011;27766;52.174;5.456;2022-08-19T03:39:24;19.38;;;13.85;;
42110;SDS011;27766;52.174;5.456;2022-08-19T03:41:53;16.10;;;14.40;;
42110;SDS011;27766;52.174;5.456;2022-08-19T03:44:46;15.38;;;12.95;;
42110;SDS011;27766;52.174;5.456;2022-08-19T03:47:13;18.35;;;14.00;;
42110;SDS011;27766;52.174;5.456;2022-08-19T03:49:41;19.08;;;14.30;;
42110;SDS011;27766;52.174;5.456;2022-08-19T03:52:09;15.75;;;14.05;;
42110;SDS011;27766;52.174;5.456;2022-08-19T03:54:37;15.88;;;13.77;;
42110;SDS011;27766;52.174;5.456;2022-08-19T03:57:05;15.50;;;13.73;;
42110;SDS011;27766;52.174;5.456;2022-08-19T03:59:33;14.18;;;12.68;;
42110;SDS011;27766;52.174;5.456;2022-08-19T04:02:05;17.10;;;13.00;;
42110;SDS011;27766;52.174;5.456;2022-08-19T04:04:39;15.73;;;12.88;;
42110;SDS011;27766;52.174;5.456;2022-08-19T04:07:10;17.90;;;13.57;;
42110;SDS011;27766;52.174;5.456;2022-08-19T04:09:40;14.25;;;12.75;;
42110;SDS011;27766;52.174;5.456;2022-08-19T04:12:08;14.55;;;12.35;;
42110;SDS011;27766;52.174;5.456;2022-08-19T04:14:35;16.02;;;12.38;;
42110;SDS011;27766;52.174;5.456;2022-08-19T04:17:02;16.45;;;12.65;;
42110;SDS011;27766;52.174;5.456;2022-08-19T04:19:32;16.08;;;12.90;;
42110;SDS011;27766;52.174;5.456;2022-08-19T04:22:01;15.45;;;12.73;;
42110;SDS011;27766;52.174;5.456;2022-08-19T04:24:29;14.63;;;12.50;;
42110;SDS011;27766;52.174;5.456;2022-08-19T04:26:58;15.55;;;12.27;;
42110;SDS011;27766;52.174;5.456;2022-08-19T04:29:27;16.00;;;11.60;;
42110;SDS011;27766;52.174;5.456;2022-08-19T04:31:57;19.40;;;12.43;;
42110;SDS011;27766;52.174;5.456;2022-08-19T04:34:34;19.13;;;13.73;;
42110;SDS011;27766;52.174;5.456;2022-08-19T04:37:22;16.38;;;12.90;;
42110;SDS011;27766;52.174;5.456;2022-08-19T04:39:49;17.27;;;14.55;;
42110;SDS011;27766;52.174;5.456;2022-08-19T04:42:35;35.28;;;14.35;;
42110;SDS011;27766;52.174;5.456;2022-08-19T04:45:05;60.88;;;15.52;;
42110;SDS011;27766;52.174;5.456;2022-08-19T04:47:38;57.23;;;14.67;;
42110;SDS011;27766;52.174;5.456;2022-08-19T04:50:17;30.35;;;11.82;;
42110;SDS011;27766;52.174;5.456;2022-08-19T04:52:45;21.85;;;11.52;;
42110;SDS011;27766;52.174;5.456;2022-08-19T04:55:12;36.55;;;12.15;;
42110;SDS011;27766;52.174;5.456;2022-08-19T04:57:40;25.17;;;11.38;;
42110;SDS011;27766;52.174;5.456;2022-08-19T05:00:08;15.65;;;10.50;;
42110;SDS011;27766;52.174;5.456;2022-08-19T05:02:35;15.02;;;10.55;;
42110;SDS011;27766;52.174;5.456;2022-08-19T05:05:03;13.00;;;10.50;;
42110;SDS011;27766;52.174;5.456;2022-08-19T05:07:33;11.73;;;10.50;;
42110;SDS011;27766;52.174;5.456;2022-08-19T05:10:00;13.40;;;11.38;;
42110;SDS011;27766;52.174;5.456;2022-08-19T05:12:27;12.15;;;10.85;;
42110;SDS011;27766;52.174;5.456;2022-08-19T05:14:57;15.60;;;11.30;;
42110;SDS011;27766;52.174;5.456;2022-08-19T05:17:27;11.55;;;10.35;;
42110;SDS011;27766;52.174;5.456;2022-08-19T05:20:00;12.60;;;11.23;;
42110;SDS011;27766;52.174;5.456;2022-08-19T05:22:48;12.50;;;10.70;;
42110;SDS011;27766;52.174;5.456;2022-08-19T05:25:16;15.48;;;11.18;;
42110;SDS011;27766;52.174;5.456;2022-08-19T05:27:46;13.52;;;11.23;;
42110;SDS011;27766;52.174;5.456;2022-08-19T05:30:14;12.73;;;11.32;;
42110;SDS011;27766;52.174;5.456;2022-08-19T05:32:41;13.32;;;11.57;;
42110;SDS011;27766;52.174;5.456;2022-08-19T05:35:09;16.35;;;12.93;;
42110;SDS011;27766;52.174;5.456;2022-08-19T05:37:38;14.93;;;12.80;;
42110;SDS011;27766;52.174;5.456;2022-08-19T05:40:08;17.23;;;12.90;;
42110;SDS011;27766;52.174;5.456;2022-08-19T05:42:36;18.17;;;13.57;;
42110;SDS011;27766;52.174;5.456;2022-08-19T05:45:04;19.05;;;13.65;;
42110;SDS011;27766;52.174;5.456;2022-08-19T05:47:32;19.20;;;14.80;;
42110;SDS011;27766;52.174;5.456;2022-08-19T05:49:59;19.17;;;15.18;;
42110;SDS011;27766;52.174;5.456;2022-08-19T05:52:30;16.13;;;14.30;;
42110;SDS011;27766;52.174;5.456;2022-08-19T05:54:59;17.83;;;14.57;;
42110;SDS011;27766;52.174;5.456;2022-08-19T05:57:26;23.65;;;15.52;;
42110;SDS011;27766;52.174;5.456;2022-08-19T05:59:56;22.45;;;14.98;;
42110;SDS011;27766;52.174;5.456;2022-08-19T06:02:27;17.83;;;14.65;;
42110;SDS011;27766;52.174;5.456;2022-08-19T06:04:57;18.40;;;14.45;;
42110;SDS011;27766;52.174;5.456;2022-08-19T06:07:25;27.00;;;16.10;;
42110;SDS011;27766;52.174;5.456;2022-08-19T06:09:52;22.98;;;16.83;;
42110;SDS011;27766;52.174;5.456;2022-08-19T06:12:30;21.08;;;16.73;;
42110;SDS011;27766;52.174;5.456;2022-08-19T06:15:03;21.27;;;16.42;;
42110;SDS011;27766;52.174;5.456;2022-08-19T06:17:33;23.55;;;17.25;;
42110;SDS011;27766;52.174;5.456;2022-08-19T06:20:05;28.42;;;19.45;;
42110;SDS011;27766;52.174;5.456;2022-08-19T06:22:41;28.15;;;20.40;;
42110;SDS011;27766;52.174;5.456;2022-08-19T06:25:11;35.58;;;22.50;;
42110;SDS011;27766;52.174;5.456;2022-08-19T06:27:40;31.00;;;20.77;;
42110;SDS011;27766;52.174;5.456;2022-08-19T06:30:29;31.85;;;22.60;;
42110;SDS011;27766;52.174;5.456;2022-08-19T06:32:56;31.08;;;23.33;;
42110;SDS011;27766;52.174;5.456;2022-08-19T06:35:23;37.00;;;24.73;;
42110;SDS011;27766;52.174;5.456;2022-08-19T06:37:51;33.85;;;23.63;;
42110;SDS011;27766;52.174;5.456;2022-08-19T06:40:19;34.95;;;22.10;;
42110;SDS011;27766;52.174;5.456;2022-08-19T06:42:46;38.15;;;27.73;;
42110;SDS011;27766;52.174;5.456;2022-08-19T06:45:22;33.95;;;26.55;;
42110;SDS011;27766;52.174;5.456;2022-08-19T06:47:51;38.70;;;28.15;;
42110;SDS011;27766;52.174;5.456;2022-08-19T06:50:23;44.10;;;31.42;;
42110;SDS011;27766;52.174;5.456;2022-08-19T06:52:52;43.22;;;29.73;;
42110;SDS011;27766;52.174;5.456;2022-08-19T06:55:22;43.75;;;31.40;;
42110;SDS011;27766;52.174;5.456;2022-08-19T06:57:49;45.28;;;32.17;;
42110;SDS011;27766;52.174;5.456;2022-08-19T07:00:20;49.25;;;32.03;;
42110;SDS011;27766;52.174;5.456;2022-08-19T07:02:49;42.90;;;31.52;;
42110;SDS011;27766;52.174;5.456;2022-08-19T07:05:25;55.83;;;32.95;;
42110;SDS011;27766;52.174;5.456;2022-08-19T07:07:52;48.38;;;31.38;;
42110;SDS011;27766;52.174;5.456;2022-08-19T07:10:23;50.20;;;32.28;;
42110;SDS011;27766;52.174;5.456;2022-08-19T07:12:52;44.80;;;31.25;;
42110;SDS011;27766;52.174;5.456;2022-08-19T07:15:22;46.70;;;31.67;;
42110;SDS011;27766;52.174;5.456;2022-08-19T07:17:49;46.50;;;30.83;;
42110;SDS011;27766;52.174;5.456;2022-08-19T07:20:19;46.60;;;31.38;;
42110;SDS011;27766;52.174;5.456;2022-08-19T07:22:55;49.47;;;32.05;;
42110;SDS011;27766;52.174;5.456;2022-08-19T07:25:22;55.05;;;33.13;;
42110;SDS011;27766;52.174;5.456;2022-08-19T07:27:59;48.95;;;34.42;;
42110;SDS011;27766;52.174;5.456;2022-08-19T07:30:27;50.63;;;34.13;;
42110;SDS011;27766;52.174;5.456;2022-08-19T07:32:57;52.50;;;34.28;;
42110;SDS011;27766;52.174;5.456;2022-08-19T07:35:29;55.13;;;36.08;;
42110;SDS011;27766;52.174;5.456;2022-08-19T07:37:59;52.88;;;34.60;;
42110;SDS011;27766;52.174;5.456;2022-08-19T07:40:31;54.58;;;36.22;;
42110;SDS011;27766;52.174;5.456;2022-08-19T07:42:59;53.80;;;37.70;;
42110;SDS011;27766;52.174;5.456;2022-08-19T07:45:26;50.97;;;36.22;;
42110;SDS011;27766;52.174;5.456;2022-08-19T07:47:56;55.95;;;35.83;;
42110;SDS011;27766;52.174;5.456;2022-08-19T07:50:25;59.13;;;36.72;;
42110;SDS011;27766;52.174;5.456;2022-08-19T07:52:52;56.38;;;35.67;;
42110;SDS011;27766;52.174;5.456;2022-08-19T07:55:21;47.47;;;33.83;;
42110;SDS011;27766;52.174;5.456;2022-08-19T07:58:08;47.15;;;32.83;;
42110;SDS011;27766;52.174;5.456;2022-08-19T08:00:37;57.15;;;37.85;;
42110;SDS011;27766;52.174;5.456;2022-08-19T08:03:04;58.63;;;34.22;;
42110;SDS011;27766;52.174;5.456;2022-08-19T08:05:31;50.00;;;33.92;;
42110;SDS011;27766;52.174;5.456;2022-08-19T08:08:19;55.47;;;34.50;;
42110;SDS011;27766;52.174;5.456;2022-08-19T08:11:14;50.58;;;35.17;;
42110;SDS011;27766;52.174;5.456;2022-08-19T08:13:46;49.28;;;31.73;;
42110;SDS011;27766;52.174;5.456;2022-08-19T08:19:00;47.50;;;32.15;;
42110;SDS011;27766;52.174;5.456;2022-08-19T08:21:27;45.53;;;30.92;;
42110;SDS011;27766;52.174;5.456;2022-08-19T08:23:55;44.35;;;31.00;;
42110;SDS011;27766;52.174;5.456;2022-08-19T08:26:23;41.08;;;28.98;;
42110;SDS011;27766;52.174;5.456;2022-08-19T08:28:52;39.13;;;27.60;;
42110;SDS011;27766;52.174;5.456;2022-08-19T08:31:22;37.55;;;27.33;;
42110;SDS011;27766;52.174;5.456;2022-08-19T08:33:51;34.28;;;26.48;;
42110;SDS011;27766;52.174;5.456;2022-08-19T08:36:19;38.17;;;24.65;;
42110;SDS011;27766;52.174;5.456;2022-08-19T08:38:46;37.30;;;25.40;;
42110;SDS011;27766;52.174;5.456;2022-08-19T08:41:28;31.02;;;24.60;;
42110;SDS011;27766;52.174;5.456;2022-08-19T08:44:03;33.97;;;24.90;;
42110;SDS011;27766;52.174;5.456;2022-08-19T08:46:39;36.30;;;25.50;;
42110;SDS011;27766;52.174;5.456;2022-08-19T08:52:02;32.80;;;23.48;;
42110;SDS011;27766;52.174;5.456;2022-08-19T08:55:10;30.02;;;22.30;;
42110;SDS011;27766;52.174;5.456;2022-08-19T09:00:18;34.05;;;24.30;;
42110;SDS011;27766;52.174;5.456;2022-08-19T09:02:54;30.38;;;21.15;;
42110;SDS011;27766;52.174;5.456;2022-08-19T09:05:23;29.42;;;20.58;;
42110;SDS011;27766;52.174;5.456;2022-08-19T09:08:08;27.73;;;20.48;;
42110;SDS011;27766;52.174;5.456;2022-08-19T09:10:48;24.60;;;19.98;;
42110;SDS011;27766;52.174;5.456;2022-08-19T09:16:06;31.33;;;21.42;;
42110;SDS011;27766;52.174;5.456;2022-08-19T09:18:48;27.77;;;20.02;;
42110;SDS011;27766;52.174;5.456;2022-08-19T09:21:21;23.88;;;19.00;;
42110;SDS011;27766;52.174;5.456;2022-08-19T09:23:59;22.98;;;17.77;;
42110;SDS011;27766;52.174;5.456;2022-08-19T09:26:30;22.92;;;16.10;;
42110;SDS011;27766;52.174;5.456;2022-08-19T09:29:14;25.50;;;17.20;;
42110;SDS011;27766;52.174;5.456;2022-08-19T09:31:43;19.55;;;16.05;;
42110;SDS011;27766;52.174;5.456;2022-08-19T09:34:11;21.15;;;15.88;;
42110;SDS011;27766;52.174;5.456;2022-08-19T09:36:48;21.88;;;15.85;;
42110;SDS011;27766;52.174;5.456;2022-08-19T09:39:21;20.73;;;15.82;;
42110;SDS011;27766;52.174;5.456;2022-08-19T09:41:49;24.08;;;16.10;;
42110;SDS011;27766;52.174;5.456;2022-08-19T09:44:17;25.10;;;16.67;;
42110;SDS011;27766;52.174;5.456;2022-08-19T09:46:48;22.15;;;16.38;;
42110;SDS011;27766;52.174;5.456;2022-08-19T09:49:16;19.58;;;16.65;;
42110;SDS011;27766;52.174;5.456;2022-08-19T09:51:48;26.02;;;17.45;;
42110;SDS011;27766;52.174;5.456;2022-08-19T09:54:18;26.63;;;14.75;;
42110;SDS011;27766;52.174;5.456;2022-08-19T09:56:54;27.48;;;14.27;;
42110;SDS011;27766;52.174;5.456;2022-08-19T09:59:44;20.33;;;14.32;;
42110;SDS011;27766;52.174;5.456;2022-08-19T10:02:11;23.77;;;14.68;;
42110;SDS011;27766;52.174;5.456;2022-08-19T10:04:48;15.48;;;12.73;;
42110;SDS011;27766;52.174;5.456;2022-08-19T10:07:33;17.45;;;13.50;;
42110;SDS011;27766;52.174;5.456;2022-08-19T10:10:05;20.25;;;13.38;;
42110;SDS011;27766;52.174;5.456;2022-08-19T10:12:34;14.75;;;12.57;;
42110;SDS011;27766;52.174;5.456;2022-08-19T10:15:01;24.70;;;13.48;;
42110;SDS011;27766;52.174;5.456;2022-08-19T10:17:31;16.45;;;12.88;;
42110;SDS011;27766;52.174;5.456;2022-08-19T10:20:02;16.02;;;12.25;;
42110;SDS011;27766;52.174;5.456;2022-08-19T10:22:30;12.27;;;10.95;;
42110;SDS011;27766;52.174;5.456;2022-08-19T10:25:00;12.38;;;11.07;;
42110;SDS011;27766;52.174;5.456;2022-08-19T10:27:27;23.88;;;11.30;;
42110;SDS011;27766;52.174;5.456;2022-08-19T10:29:58;11.98;;;9.95;;
42110;SDS011;27766;52.174;5.456;2022-08-19T10:32:31;12.85;;;10.35;;
42110;SDS011;27766;52.174;5.456;2022-08-19T10:35:00;18.63;;;11.18;;
42110;SDS011;27766;52.174;5.456;2022-08-19T10:37:32;22.67;;;11.23;;
42110;SDS011;27766;52.174;5.456;2022-08-19T10:40:01;11.38;;;9.52;;
42110;SDS011;27766;52.174;5.456;2022-08-19T10:42:29;14.75;;;11.50;;
42110;SDS011;27766;52.174;5.456;2022-08-19T10:44:57;15.63;;;11.13;;
42110;SDS011;27766;52.174;5.456;2022-08-19T10:47:26;17.90;;;12.00;;
42110;SDS011;27766;52.174;5.456;2022-08-19T10:49:57;16.02;;;12.82;;
42110;SDS011;27766;52.174;5.456;2022-08-19T10:52:45;22.38;;;12.52;;
42110;SDS011;27766;52.174;5.456;2022-08-19T10:55:16;17.33;;;12.55;;
42110;SDS011;27766;52.174;5.456;2022-08-19T10:58:09;16.20;;;13.05;;
42110;SDS011;27766;52.174;5.456;2022-08-19T11:00:37;16.80;;;12.65;;
42110;SDS011;27766;52.174;5.456;2022-08-19T11:03:05;15.82;;;13.35;;
42110;SDS011;27766;52.174;5.456;2022-08-19T11:05:35;16.13;;;12.90;;
42110;SDS011;27766;52.174;5.456;2022-08-19T11:08:06;20.10;;;13.95;;
42110;SDS011;27766;52.174;5.456;2022-08-19T11:10:50;20.47;;;12.77;;
42110;SDS011;27766;52.174;5.456;2022-08-19T11:13:21;16.73;;;13.05;;
42110;SDS011;27766;52.174;5.456;2022-08-19T11:15:56;15.48;;;13.60;;
42110;SDS011;27766;52.174;5.456;2022-08-19T11:18:38;26.92;;;13.57;;
42110;SDS011;27766;52.174;5.456;2022-08-19T11:21:29;16.02;;;13.07;;
42110;SDS011;27766;52.174;5.456;2022-08-19T11:24:02;18.45;;;12.93;;
42110;SDS011;27766;52.174;5.456;2022-08-19T11:26:32;15.95;;;12.80;;
42110;SDS011;27766;52.174;5.456;2022-08-19T11:29:01;16.55;;;14.82;;
42110;SDS011;27766;52.174;5.456;2022-08-19T11:31:31;15.65;;;13.00;;
42110;SDS011;27766;52.174;5.456;2022-08-19T11:34:01;15.70;;;12.88;;
42110;SDS011;27766;52.174;5.456;2022-08-19T11:36:30;18.73;;;12.60;;
42110;SDS011;27766;52.174;5.456;2022-08-19T11:38:59;22.48;;;14.60;;
42110;SDS011;27766;52.174;5.456;2022-08-19T11:41:27;17.98;;;14.32;;
42110;SDS011;27766;52.174;5.456;2022-08-19T11:43:57;16.63;;;12.98;;
42110;SDS011;27766;52.174;5.456;2022-08-19T11:46:25;22.08;;;14.88;;
42110;SDS011;27766;52.174;5.456;2022-08-19T11:48:56;22.33;;;16.20;;
42110;SDS011;27766;52.174;5.456;2022-08-19T11:51:28;18.15;;;14.50;;
42110;SDS011;27766;52.174;5.456;2022-08-19T11:53:57;15.38;;;12.70;;
42110;SDS011;27766;52.174;5.456;2022-08-19T11:56:26;15.95;;;12.00;;
42110;SDS011;27766;52.174;5.456;2022-08-19T11:58:56;22.60;;;14.55;;
42110;SDS011;27766;52.174;5.456;2022-08-19T12:01:25;20.35;;;13.68;;
42110;SDS011;27766;52.174;5.456;2022-08-19T12:03:54;25.10;;;16.95;;
42110;SDS011;27766;52.174;5.456;2022-08-19T12:06:24;21.42;;;14.70;;
42110;SDS011;27766;52.174;5.456;2022-08-19T12:08:56;17.98;;;15.00;;
42110;SDS011;27766;52.174;5.456;2022-08-19T12:11:29;25.85;;;18.25;;
42110;SDS011;27766;52.174;5.456;2022-08-19T12:14:00;19.85;;;14.30;;
42110;SDS011;27766;52.174;5.456;2022-08-19T12:16:28;24.75;;;16.88;;
42110;SDS011;27766;52.174;5.456;2022-08-19T12:19:03;17.98;;;14.73;;
42110;SDS011;27766;52.174;5.456;2022-08-19T12:21:32;19.58;;;15.02;;
42110;SDS011;27766;52.174;5.456;2022-08-19T12:24:01;22.10;;;13.68;;
42110;SDS011;27766;52.174;5.456;2022-08-19T12:26:29;16.63;;;13.80;;
42110;SDS011;27766;52.174;5.456;2022-08-19T12:28:58;18.88;;;13.90;;
42110;SDS011;27766;52.174;5.456;2022-08-19T12:31:27;20.30;;;14.05;;
42110;SDS011;27766;52.174;5.456;2022-08-19T12:33:56;25.75;;;15.80;;
42110;SDS011;27766;52.174;5.456;2022-08-19T12:36:23;26.67;;;18.35;;
42110;SDS011;27766;52.174;5.456;2022-08-19T12:38:52;27.98;;;21.30;;
42110;SDS011;27766;52.174;5.456;2022-08-19T12:41:20;35.78;;;22.83;;
42110;SDS011;27766;52.174;5.456;2022-08-19T12:43:49;31.27;;;25.05;;
42110;SDS011;27766;52.174;5.456;2022-08-19T12:46:18;40.72;;;24.10;;
42110;SDS011;27766;52.174;5.456;2022-08-19T12:48:49;32.97;;;23.27;;
42110;SDS011;27766;52.174;5.456;2022-08-19T12:51:21;26.73;;;20.58;;
42110;SDS011;27766;52.174;5.456;2022-08-19T12:53:49;23.20;;;18.42;;
42110;SDS011;27766;52.174;5.456;2022-08-19T12:56:16;22.73;;;15.70;;
42110;SDS011;27766;52.174;5.456;2022-08-19T12:58:49;19.58;;;14.65;;
42110;SDS011;27766;52.174;5.456;2022-08-19T13:01:18;19.42;;;16.00;;
42110;SDS011;27766;52.174;5.456;2022-08-19T13:03:49;22.83;;;16.83;;
42110;SDS011;27766;52.174;5.456;2022-08-19T13:06:16;21.02;;;18.50;;
42110;SDS011;27766;52.174;5.456;2022-08-19T13:08:45;18.77;;;16.77;;
42110;SDS011;27766;52.174;5.456;2022-08-19T13:11:14;18.15;;;13.85;;
42110;SDS011;27766;52.174;5.456;2022-08-19T13:13:45;19.02;;;15.30;;
42110;SDS011;27766;52.174;5.456;2022-08-19T13:16:14;13.80;;;12.45;;
42110;SDS011;27766;52.174;5.456;2022-08-19T13:18:42;14.77;;;11.82;;
42110;SDS011;27766;52.174;5.456;2022-08-19T13:21:11;12.35;;;11.13;;
42110;SDS011;27766;52.174;5.456;2022-08-19T13:23:40;11.98;;;10.45;;
42110;SDS011;27766;52.174;5.456;2022-08-19T13:26:07;13.40;;;11.27;;
42110;SDS011;27766;52.174;5.456;2022-08-19T13:28:36;14.05;;;12.55;;
42110;SDS011;27766;52.174;5.456;2022-08-19T13:31:23;15.00;;;12.98;;
42110;SDS011;27766;52.174;5.456;2022-08-19T13:34:11;15.25;;;13.73;;
42110;SDS011;27766;52.174;5.456;2022-08-19T13:36:38;18.67;;;14.50;;
42110;SDS011;27766;52.174;5.456;2022-08-19T13:39:06;16.50;;;14.75;;
42110;SDS011;27766;52.174;5.456;2022-08-19T13:41:37;20.00;;;16.52;;
42110;SDS011;27766;52.174;5.456;2022-08-19T13:44:10;17.50;;;15.45;;
42110;SDS011;27766;52.174;5.456;2022-08-19T13:46:38;23.15;;;17.52;;
42110;SDS011;27766;52.174;5.456;2022-08-19T13:49:05;20.77;;;17.42;;
42110;SDS011;27766;52.174;5.456;2022-08-19T13:51:32;20.52;;;16.20;;
42110;SDS011;27766;52.174;5.456;2022-08-19T13:53:59;16.58;;;14.88;;
42110;SDS011;27766;52.174;5.456;2022-08-19T13:56:26;21.05;;;17.60;;
42110;SDS011;27766;52.174;5.456;2022-08-19T13:58:53;16.83;;;15.05;;
42110;SDS011;27766;52.174;5.456;2022-08-19T14:01:25;18.75;;;15.70;;
42110;SDS011;27766;52.174;5.456;2022-08-19T14:03:53;25.83;;;17.05;;
42110;SDS011;27766;52.174;5.456;2022-08-19T14:06:21;24.05;;;16.25;;
42110;SDS011;27766;52.174;5.456;2022-08-19T14:08:49;18.25;;;14.73;;
42110;SDS011;27766;52.174;5.456;2022-08-19T14:11:16;18.00;;;13.60;;
42110;SDS011;27766;52.174;5.456;2022-08-19T14:13:43;20.05;;;15.85;;
42110;SDS011;27766;52.174;5.456;2022-08-19T14:16:12;18.70;;;15.50;;
42110;SDS011;27766;52.174;5.456;2022-08-19T14:18:41;18.20;;;15.05;;
42110;SDS011;27766;52.174;5.456;2022-08-19T14:21:13;21.75;;;15.63;;
42110;SDS011;27766;52.174;5.456;2022-08-19T14:23:43;19.77;;;14.93;;
42110;SDS011;27766;52.174;5.456;2022-08-19T14:26:12;17.80;;;14.65;;
42110;SDS011;27766;52.174;5.456;2022-08-19T14:28:41;16.15;;;12.75;;
42110;SDS011;27766;52.174;5.456;2022-08-19T14:31:12;15.05;;;12.25;;
42110;SDS011;27766;52.174;5.456;2022-08-19T14:33:43;13.95;;;12.32;;
42110;SDS011;27766;52.174;5.456;2022-08-19T14:36:13;20.67;;;14.30;;
42110;SDS011;27766;52.174;5.456;2022-08-19T14:38:41;16.48;;;14.65;;
42110;SDS011;27766;52.174;5.456;2022-08-19T14:41:15;16.45;;;12.48;;
42110;SDS011;27766;52.174;5.456;2022-08-19T14:43:47;17.35;;;11.40;;
42110;SDS011;27766;52.174;5.456;2022-08-19T14:46:17;15.63;;;11.02;;
42110;SDS011;27766;52.174;5.456;2022-08-19T14:48:51;14.63;;;11.52;;
42110;SDS011;27766;52.174;5.456;2022-08-19T14:51:20;11.35;;;10.15;;
42110;SDS011;27766;52.174;5.456;2022-08-19T14:53:50;13.30;;;9.82;;
42110;SDS011;27766;52.174;5.456;2022-08-19T14:56:19;10.98;;;9.82;;
42110;SDS011;27766;52.174;5.456;2022-08-19T14:58:49;11.57;;;10.38;;
42110;SDS011;27766;52.174;5.456;2022-08-19T15:01:19;10.40;;;9.27;;